createdAt,value
2018-07-26T00:02:03.272Z,100.00
2018-07-26T00:04:32.300Z,100.00
2018-07-26T00:07:01.365Z,100.00
2018-07-26T00:09:30.336Z,100.00
2018-07-26T00:11:59.335Z,100.00
2018-07-26T00:14:28.304Z,100.00
2018-07-26T00:16:57.344Z,100.00
2018-07-26T00:19:26.300Z,100.00
2018-07-26T00:21:55.254Z,100.00
2018-07-26T00:24:24.236Z,100.00
2018-07-26T00:26:53.224Z,100.00
2018-07-26T00:29:22.228Z,100.00
2018-07-26T00:31:51.193Z,100.00
2018-07-26T00:34:20.140Z,100.00
2018-07-26T00:36:49.112Z,100.00
2018-07-26T00:39:18.084Z,100.00
2018-07-26T00:41:47.076Z,100.00
2018-07-26T00:44:16.017Z,100.00
2018-07-26T00:46:45.008Z,100.00
2018-07-26T00:49:13.952Z,100.00
2018-07-26T00:51:42.920Z,100.00
2018-07-26T00:54:11.922Z,100.00
2018-07-26T00:56:40.951Z,100.00
2018-07-26T00:59:09.944Z,100.00
2018-07-26T01:01:38.959Z,100.00
2018-07-26T01:04:08.024Z,100.00
2018-07-26T01:06:37.025Z,100.00
2018-07-26T01:09:08.993Z,100.00
2018-07-26T01:11:38.263Z,100.00
2018-07-26T01:14:07.228Z,100.00
2018-07-26T01:16:36.205Z,100.00
2018-07-26T01:19:05.430Z,100.00
2018-07-26T01:21:34.448Z,100.00
2018-07-26T01:24:03.636Z,100.00
2018-07-26T01:26:32.712Z,100.00
2018-07-26T01:29:01.793Z,100.00
2018-07-26T01:31:30.839Z,100.00
2018-07-26T01:33:59.866Z,100.00
2018-07-26T01:36:28.824Z,100.00
2018-07-26T01:38:57.927Z,100.00
2018-07-26T01:41:26.945Z,100.00
2018-07-26T01:44:06.687Z,100.00
2018-07-26T01:46:35.615Z,100.00
2018-07-26T01:49:04.683Z,100.00
2018-07-26T01:51:33.648Z,100.00
2018-07-26T01:54:02.721Z,100.00
2018-07-26T01:56:31.746Z,100.00
2018-07-26T01:59:00.692Z,100.00
2018-07-26T02:01:29.660Z,100.00
2018-07-26T02:03:58.672Z,100.00
2018-07-26T02:06:27.702Z,100.00
2018-07-26T02:08:56.692Z,100.00
2018-07-26T02:11:25.794Z,100.00
2018-07-26T02:13:54.824Z,100.00
2018-07-26T02:16:23.846Z,100.00
2018-07-26T02:18:52.932Z,100.00
2018-07-26T02:21:21.880Z,100.00
2018-07-26T02:23:50.869Z,100.00
2018-07-26T02:26:19.829Z,100.00
2018-07-26T02:28:48.847Z,100.00
2018-07-26T02:31:17.800Z,100.00
2018-07-26T02:33:46.827Z,100.00
2018-07-26T02:36:15.788Z,100.00
2018-07-26T02:38:44.796Z,100.00
2018-07-26T02:41:13.829Z,100.00
2018-07-26T02:43:42.860Z,100.00
2018-07-26T02:46:11.901Z,100.00
2018-07-26T02:48:40.844Z,100.00
2018-07-26T02:51:09.902Z,100.00
2018-07-26T02:53:38.910Z,100.00
2018-07-26T02:56:07.916Z,100.00
2018-07-26T02:58:36.892Z,100.00
2018-07-26T03:01:05.908Z,100.00
2018-07-26T03:03:35.047Z,100.00
2018-07-26T03:06:04.013Z,100.00
2018-07-26T03:08:33.045Z,100.00
2018-07-26T03:11:02.098Z,100.00
2018-07-26T03:13:31.072Z,100.00
2018-07-26T03:16:00.154Z,100.00
2018-07-26T03:18:29.108Z,100.00
2018-07-26T03:20:58.369Z,100.00
2018-07-26T03:23:27.325Z,100.00
2018-07-26T03:25:56.296Z,100.00
2018-07-26T03:28:25.282Z,100.00
2018-07-26T03:30:54.290Z,100.00
2018-07-26T03:33:23.334Z,100.00
2018-07-26T03:35:52.345Z,100.00
2018-07-26T03:38:21.432Z,100.00
2018-07-26T03:40:50.408Z,100.00
2018-07-26T03:43:19.429Z,100.00
2018-07-26T03:45:48.408Z,100.00
2018-07-26T03:48:17.388Z,100.00
2018-07-26T03:50:46.454Z,100.00
2018-07-26T03:53:15.487Z,100.00
2018-07-26T03:55:44.573Z,100.00
2018-07-26T03:58:13.544Z,100.00
2018-07-26T04:00:42.585Z,100.00
2018-07-26T04:03:11.647Z,100.00
2018-07-26T04:05:40.648Z,100.00
2018-07-26T04:08:24.141Z,100.00
2018-07-26T04:10:53.177Z,100.00
2018-07-26T04:13:22.333Z,100.00
2018-07-26T04:15:51.422Z,100.00
2018-07-26T04:18:20.462Z,100.00
2018-07-26T04:20:49.572Z,100.00
2018-07-26T04:23:18.560Z,100.00
2018-07-26T04:25:47.572Z,100.00
2018-07-26T04:28:16.626Z,100.00
2018-07-26T04:30:45.666Z,95.48
2018-07-26T04:33:15.603Z,94.44
2018-07-26T04:35:44.680Z,96.80
2018-07-26T04:38:13.705Z,96.75
2018-07-26T04:40:42.696Z,97.52
2018-07-26T04:43:11.913Z,97.29
2018-07-26T04:45:41.046Z,98.57
2018-07-26T04:48:10.262Z,99.37
2018-07-26T04:50:39.840Z,99.61
2018-07-26T04:53:08.879Z,100.00
2018-07-26T04:55:37.922Z,100.00
2018-07-26T04:58:07.222Z,100.00
2018-07-26T05:00:36.208Z,100.00
2018-07-26T05:03:05.304Z,100.00
2018-07-26T05:05:34.362Z,100.00
2018-07-26T05:08:03.436Z,100.00
2018-07-26T05:10:32.561Z,100.00
2018-07-26T05:13:01.678Z,100.00
2018-07-26T05:15:30.721Z,100.00
2018-07-26T05:17:59.817Z,100.00
2018-07-26T05:20:28.824Z,100.00
2018-07-26T05:22:57.848Z,100.00
2018-07-26T05:25:26.991Z,100.00
2018-07-26T05:27:56.069Z,100.00
2018-07-26T05:30:25.129Z,100.00
2018-07-26T05:32:54.185Z,100.00
2018-07-26T05:35:23.177Z,100.00
2018-07-26T05:37:52.216Z,99.89
2018-07-26T05:40:21.383Z,98.71
2018-07-26T05:42:50.368Z,96.78
2018-07-26T05:45:19.398Z,96.42
2018-07-26T05:47:48.479Z,96.35
2018-07-26T05:50:17.552Z,96.24
2018-07-26T05:52:46.548Z,93.53
2018-07-26T05:55:15.685Z,93.47
2018-07-26T05:57:44.744Z,94.73
2018-07-26T06:00:14.800Z,89.78
2018-07-26T06:02:44.514Z,87.56
2018-07-26T06:05:13.523Z,86.44
2018-07-26T06:07:42.601Z,85.89
2018-07-26T06:10:11.644Z,84.22
2018-07-26T06:12:40.713Z,83.37
2018-07-26T06:15:11.921Z,84.80
2018-07-26T06:17:41.498Z,82.49
2018-07-26T06:20:12.009Z,77.78
2018-07-26T06:22:41.461Z,74.72
2018-07-26T06:25:10.771Z,69.35
2018-07-26T06:27:39.908Z,60.65
2018-07-26T06:30:11.881Z,60.24
2018-07-26T06:32:41.192Z,59.44
2018-07-26T06:35:10.900Z,60.18
2018-07-26T06:37:40.276Z,60.23
2018-07-26T06:40:09.364Z,63.45
2018-07-26T06:42:38.352Z,62.65
2018-07-26T06:45:08.520Z,59.29
2018-07-26T06:47:37.502Z,60.57
2018-07-26T06:50:08.638Z,59.57
2018-07-26T06:52:37.716Z,58.77
2018-07-26T06:55:06.980Z,62.21
2018-07-26T06:57:36.015Z,66.09
2018-07-26T07:00:06.751Z,68.10
2018-07-26T07:02:35.745Z,67.97
2018-07-26T07:05:04.747Z,68.91
2018-07-26T07:07:33.757Z,70.43
2018-07-26T07:10:02.855Z,70.42
2018-07-26T07:12:31.924Z,70.38
2018-07-26T07:15:00.884Z,70.11
2018-07-26T07:17:29.859Z,68.26
2018-07-26T07:19:58.821Z,70.94
2018-07-26T07:22:27.912Z,71.58
2018-07-26T07:24:56.937Z,73.26
2018-07-26T07:27:26.026Z,75.36
2018-07-26T07:29:55.106Z,77.37
2018-07-26T07:32:24.112Z,77.80
2018-07-26T07:34:53.128Z,78.45
2018-07-26T07:37:22.104Z,77.61
2018-07-26T07:39:51.080Z,75.09
2018-07-26T07:42:20.038Z,71.90
2018-07-26T07:44:49.107Z,72.56
2018-07-26T07:47:18.145Z,70.25
2018-07-26T07:49:47.084Z,66.78
2018-07-26T07:52:16.172Z,67.43
2018-07-26T07:54:45.197Z,63.27
2018-07-26T07:57:14.348Z,64.46
2018-07-26T07:59:43.327Z,63.04
2018-07-26T08:02:12.422Z,64.66
2018-07-26T08:04:41.381Z,64.38
2018-07-26T08:07:10.406Z,64.25
2018-07-26T08:09:39.442Z,65.32
2018-07-26T08:12:08.480Z,62.35
2018-07-26T08:14:37.638Z,66.22
2018-07-26T08:17:06.704Z,65.26
2018-07-26T08:19:35.717Z,61.36
2018-07-26T08:22:04.741Z,63.31
2018-07-26T08:24:33.753Z,61.77
2018-07-26T08:27:02.730Z,58.19
2018-07-26T08:29:31.758Z,59.02
2018-07-26T08:32:00.736Z,60.50
2018-07-26T08:34:29.760Z,55.93
2018-07-26T08:36:58.816Z,59.86
2018-07-26T08:39:27.792Z,56.63
2018-07-26T08:41:56.799Z,60.10
2018-07-26T08:44:25.844Z,60.13
2018-07-26T08:46:54.828Z,60.63
2018-07-26T08:49:23.827Z,62.23
2018-07-26T08:51:52.920Z,56.79
2018-07-26T08:54:22.060Z,57.45
2018-07-26T08:56:51.080Z,58.46
2018-07-26T08:59:20.045Z,56.53
2018-07-26T09:01:49.180Z,57.65
2018-07-26T09:04:18.152Z,55.77
2018-07-26T09:06:47.185Z,54.98
2018-07-26T09:09:16.277Z,58.05
2018-07-26T09:11:45.340Z,55.29
2018-07-26T09:14:14.475Z,57.85
2018-07-26T09:16:43.428Z,60.70
2018-07-26T09:19:12.400Z,56.98
2018-07-26T09:21:41.465Z,58.50
2018-07-26T09:24:10.462Z,56.19
2018-07-26T09:26:39.416Z,58.10
2018-07-26T09:29:08.455Z,58.25
2018-07-26T09:31:37.412Z,58.58
2018-07-26T09:34:06.450Z,55.85
2018-07-26T09:36:35.478Z,57.28
2018-07-26T09:39:06.763Z,54.34
2018-07-26T09:41:35.825Z,55.22
2018-07-26T09:44:04.778Z,53.60
2018-07-26T09:46:33.865Z,52.84
2018-07-26T09:49:02.868Z,52.66
2018-07-26T09:51:31.830Z,55.63
2018-07-26T09:54:00.801Z,55.44
2018-07-26T09:56:29.861Z,53.38
2018-07-26T09:58:58.912Z,53.18
2018-07-26T10:01:33.680Z,54.08
2018-07-26T10:04:02.773Z,49.05
2018-07-26T10:06:31.781Z,51.38
2018-07-26T10:09:00.801Z,49.92
2018-07-26T10:11:29.914Z,46.59
2018-07-26T10:13:58.950Z,44.74
2018-07-26T10:16:28.038Z,46.32
2018-07-26T10:18:57.010Z,44.10
2018-07-26T10:21:26.064Z,52.55
2018-07-26T10:23:55.013Z,46.58
2018-07-26T10:26:24.385Z,46.64
2018-07-26T10:28:53.480Z,48.92
2018-07-26T10:31:22.567Z,44.70
2018-07-26T10:33:51.544Z,44.92
2018-07-26T10:36:20.632Z,43.70
2018-07-26T10:38:49.722Z,43.74
2018-07-26T10:41:18.925Z,42.46
2018-07-26T10:43:47.872Z,40.09
2018-07-26T10:46:16.906Z,40.54
2018-07-26T10:48:45.881Z,39.53
2018-07-26T10:51:14.931Z,40.87
2018-07-26T10:53:43.948Z,39.07
2018-07-26T10:56:12.992Z,39.65
2018-07-26T10:58:42.396Z,41.07
2018-07-26T11:01:11.350Z,40.44
2018-07-26T11:03:40.361Z,39.21
2018-07-26T11:06:09.353Z,41.05
2018-07-26T11:08:38.384Z,39.65
2018-07-26T11:11:07.757Z,42.53
2018-07-26T11:13:36.836Z,37.74
2018-07-26T11:16:05.808Z,37.84
2018-07-26T11:18:34.805Z,40.18
2018-07-26T11:21:03.909Z,37.19
2018-07-26T11:23:33.005Z,36.54
2018-07-26T11:26:02.122Z,36.36
2018-07-26T11:28:31.158Z,37.70
2018-07-26T11:31:00.247Z,34.22
2018-07-26T11:33:29.228Z,34.71
2018-07-26T11:35:58.328Z,33.87
2018-07-26T11:38:27.373Z,33.04
2018-07-26T11:40:56.420Z,33.77
2018-07-26T11:43:25.449Z,34.50
2018-07-26T11:45:54.465Z,36.87
2018-07-26T11:48:23.500Z,37.62
2018-07-26T11:50:52.563Z,35.16
2018-07-26T11:53:21.569Z,35.27
2018-07-26T11:55:50.669Z,35.57
2018-07-26T11:58:19.648Z,33.76
2018-07-26T12:00:48.611Z,32.81
2018-07-26T12:03:17.628Z,32.40
2018-07-26T12:05:46.736Z,34.89
2018-07-26T12:08:15.720Z,32.39
2018-07-26T12:10:44.712Z,34.19
2018-07-26T12:13:13.712Z,35.66
2018-07-26T12:15:42.714Z,36.82
2018-07-26T12:18:11.933Z,35.26
2018-07-26T12:20:41.024Z,34.35
2018-07-26T12:23:10.101Z,33.42
2018-07-26T12:25:39.036Z,31.17
2018-07-26T12:28:08.330Z,31.91
2018-07-26T12:30:37.312Z,32.11
2018-07-26T12:33:06.356Z,31.71
2018-07-26T12:35:35.390Z,30.83
2018-07-26T12:38:04.401Z,30.76
2018-07-26T12:40:33.513Z,27.78
2018-07-26T12:43:02.881Z,27.87
2018-07-26T12:45:31.832Z,28.47
2018-07-26T12:48:00.929Z,30.25
2018-07-26T12:50:29.968Z,31.76
2018-07-26T12:52:58.944Z,30.83
2018-07-26T12:55:28.220Z,29.71
2018-07-26T12:57:57.304Z,31.32
2018-07-26T13:00:26.258Z,33.72
2018-07-26T13:02:55.265Z,36.13
2018-07-26T13:05:24.232Z,37.20
2018-07-26T13:07:53.208Z,37.14
2018-07-26T13:10:22.172Z,34.33
2018-07-26T13:12:51.136Z,35.10
2018-07-26T13:15:20.198Z,33.75
2018-07-26T13:17:49.550Z,33.74
2018-07-26T13:20:18.569Z,34.10
2018-07-26T13:22:47.608Z,36.42
2018-07-26T13:25:16.640Z,39.01
2018-07-26T13:27:45.613Z,41.09
2018-07-26T13:30:14.579Z,43.24
2018-07-26T13:32:43.560Z,45.62
2018-07-26T13:35:12.836Z,46.60
2018-07-26T13:37:41.876Z,47.11
2018-07-26T13:40:10.901Z,44.08
2018-07-26T13:42:39.860Z,43.99
2018-07-26T13:45:09.580Z,44.25
2018-07-26T13:47:38.697Z,45.56
2018-07-26T13:50:07.913Z,38.11
2018-07-26T13:52:36.989Z,38.63
2018-07-26T13:55:06.107Z,40.64
2018-07-26T13:57:35.087Z,40.72
2018-07-26T14:00:04.156Z,41.98
2018-07-26T14:02:33.186Z,44.21
2018-07-26T14:05:02.266Z,46.97
2018-07-26T14:07:31.377Z,47.85
2018-07-26T14:10:00.361Z,48.08
2018-07-26T14:12:29.437Z,46.85
2018-07-26T14:14:58.409Z,49.50
2018-07-26T14:17:27.456Z,51.14
2018-07-26T14:19:56.468Z,52.94
2018-07-26T14:22:25.434Z,51.50
2018-07-26T14:24:58.468Z,53.07
2018-07-26T14:27:27.628Z,52.35
2018-07-26T14:29:56.857Z,52.38
2018-07-26T14:32:25.815Z,52.57
2018-07-26T14:34:54.924Z,52.42
2018-07-26T14:37:23.977Z,53.08
2018-07-26T14:39:52.920Z,51.97
2018-07-26T14:42:21.913Z,53.03
2018-07-26T14:44:50.995Z,53.76
2018-07-26T14:47:19.968Z,53.41
2018-07-26T14:49:48.913Z,54.77
2018-07-26T14:52:17.993Z,54.06
2018-07-26T14:54:47.001Z,52.78
2018-07-26T14:57:16.073Z,52.42
2018-07-26T14:59:45.052Z,52.79
2018-07-26T15:02:14.173Z,54.17
2018-07-26T15:04:43.146Z,52.31
2018-07-26T15:07:12.115Z,54.27
2018-07-26T15:09:41.161Z,54.94
2018-07-26T15:12:10.376Z,54.21
2018-07-26T15:14:39.337Z,53.91
2018-07-26T15:17:08.316Z,53.38
2018-07-26T15:19:37.415Z,53.96
2018-07-26T15:22:06.461Z,55.10
2018-07-26T15:24:36.241Z,56.36
2018-07-26T15:27:06.097Z,56.36
2018-07-26T15:29:35.085Z,57.50
2018-07-26T15:32:04.057Z,58.09
2018-07-26T15:34:33.040Z,55.28
2018-07-26T15:37:03.507Z,56.71
2018-07-26T15:39:32.525Z,58.66
2018-07-26T15:42:01.593Z,58.57
2018-07-26T15:44:30.765Z,59.14
2018-07-26T15:46:59.782Z,60.76
2018-07-26T15:49:28.856Z,64.46
2018-07-26T15:51:57.945Z,64.56
2018-07-26T15:54:27.028Z,65.67
2018-07-26T15:56:56.020Z,69.38
2018-07-26T15:59:24.991Z,68.87
2018-07-26T16:01:54.008Z,70.36
2018-07-26T16:04:23.127Z,70.53
2018-07-26T16:06:52.292Z,71.37
2018-07-26T16:09:21.277Z,72.07
2018-07-26T16:11:50.341Z,71.57
2018-07-26T16:14:19.352Z,72.57
2018-07-26T16:16:48.360Z,72.63
2018-07-26T16:19:17.485Z,71.81
2018-07-26T16:21:46.512Z,72.36
2018-07-26T16:24:15.673Z,73.37
2018-07-26T16:26:44.693Z,73.63
2018-07-26T16:29:13.725Z,74.92
2018-07-26T16:31:42.708Z,75.01
2018-07-26T16:34:11.845Z,76.83
2018-07-26T16:36:40.876Z,77.22
2018-07-26T16:39:11.737Z,77.17
2018-07-26T16:41:40.860Z,77.20
2018-07-26T16:44:09.840Z,77.21
2018-07-26T16:46:38.835Z,77.44
2018-07-26T16:49:08.446Z,78.41
2018-07-26T16:51:37.451Z,79.10
2018-07-26T16:54:06.529Z,81.76
2018-07-26T16:56:35.556Z,80.32
2018-07-26T16:59:04.715Z,81.46
2018-07-26T17:01:33.747Z,81.71
2018-07-26T17:04:02.755Z,81.76
2018-07-26T17:06:31.835Z,81.49
2018-07-26T17:09:00.791Z,83.69
2018-07-26T17:11:29.843Z,83.81
2018-07-26T17:13:58.870Z,84.61
2018-07-26T17:16:27.873Z,84.63
2018-07-26T17:18:56.979Z,85.19
2018-07-26T17:21:25.979Z,80.63
2018-07-26T17:23:58.458Z,82.59
2018-07-26T17:26:27.665Z,83.06
2018-07-26T17:28:56.716Z,82.63
2018-07-26T17:31:25.693Z,82.91
2018-07-26T17:33:54.885Z,81.25
2018-07-26T17:36:23.892Z,80.11
2018-07-26T17:38:52.857Z,80.60
2018-07-26T17:41:21.803Z,81.50
2018-07-26T17:43:50.937Z,81.88
2018-07-26T17:46:19.905Z,82.09
2018-07-26T17:48:48.989Z,82.62
2018-07-26T17:51:17.999Z,83.11
2018-07-26T17:53:46.996Z,83.50
2018-07-26T17:56:16.078Z,82.98
2018-07-26T17:58:45.085Z,83.24
2018-07-26T18:01:14.720Z,83.06
2018-07-26T18:03:43.875Z,82.64
2018-07-26T18:06:12.925Z,81.89
2018-07-26T18:08:41.884Z,82.90
2018-07-26T18:11:10.864Z,83.30
2018-07-26T18:13:39.879Z,83.49
2018-07-26T18:16:08.877Z,82.85
2018-07-26T18:18:42.775Z,83.06
2018-07-26T18:21:11.793Z,83.75
2018-07-26T18:23:40.854Z,82.41
2018-07-26T18:26:09.925Z,80.73
2018-07-26T18:28:38.923Z,81.99
2018-07-26T18:31:08.010Z,81.54
2018-07-26T18:33:36.977Z,82.82
2018-07-26T18:36:06.148Z,84.20
2018-07-26T18:38:35.142Z,84.34
2018-07-26T18:41:04.120Z,84.14
2018-07-26T18:43:33.331Z,82.53
2018-07-26T18:46:02.347Z,82.20
2018-07-26T18:48:31.522Z,82.78
2018-07-26T18:51:00.650Z,82.20
2018-07-26T18:53:29.724Z,83.09
2018-07-26T18:55:58.658Z,84.28
2018-07-26T18:58:27.706Z,85.17
2018-07-26T19:00:56.702Z,86.49
2018-07-26T19:03:25.793Z,87.92
2018-07-26T19:05:54.775Z,89.00
2018-07-26T19:08:23.789Z,89.23
2018-07-26T19:10:52.866Z,90.08
2018-07-26T19:13:21.912Z,89.89
2018-07-26T19:15:50.932Z,90.18
2018-07-26T19:18:20.028Z,90.87
2018-07-26T19:20:49.105Z,91.14
2018-07-26T19:23:18.150Z,91.38
2018-07-26T19:25:47.213Z,90.59
2018-07-26T19:28:16.332Z,91.14
2018-07-26T19:30:45.291Z,91.16
2018-07-26T19:33:14.308Z,90.85
2018-07-26T19:35:43.290Z,91.48
2018-07-26T19:38:12.260Z,91.27
2018-07-26T19:40:41.248Z,91.87
2018-07-26T19:43:10.265Z,91.84
2018-07-26T19:45:39.357Z,93.38
2018-07-26T19:48:08.394Z,93.33
2018-07-26T19:50:37.504Z,93.38
2018-07-26T19:53:06.636Z,93.86
2018-07-26T19:55:35.674Z,93.59
2018-07-26T19:58:04.651Z,92.68
2018-07-26T20:00:33.604Z,93.13
2018-07-26T20:03:02.633Z,93.42
2018-07-26T20:05:31.605Z,93.28
2018-07-26T20:08:00.705Z,93.00
2018-07-26T20:10:29.740Z,93.47
2018-07-26T20:12:58.736Z,93.84
2018-07-26T20:15:27.874Z,94.14
2018-07-26T20:17:56.917Z,94.60
2018-07-26T20:20:25.884Z,94.67
2018-07-26T20:22:55.029Z,95.21
2018-07-26T20:25:24.061Z,94.91
2018-07-26T20:27:53.113Z,95.91
2018-07-26T20:30:22.132Z,95.76
2018-07-26T20:32:51.231Z,96.17
2018-07-26T20:35:20.244Z,96.45
2018-07-26T20:37:49.327Z,96.84
2018-07-26T20:40:18.484Z,96.05
2018-07-26T20:42:47.432Z,96.21
2018-07-26T20:45:16.408Z,95.80
2018-07-26T20:47:45.360Z,95.93
2018-07-26T20:50:14.391Z,95.65
2018-07-26T20:52:43.351Z,95.53
2018-07-26T20:55:12.428Z,95.88
2018-07-26T20:57:41.469Z,96.66
2018-07-26T21:00:12.169Z,95.86
2018-07-26T21:02:41.520Z,95.63
2018-07-26T21:05:10.669Z,95.58
2018-07-26T21:07:39.732Z,95.99
2018-07-26T21:10:09.555Z,96.66
2018-07-26T21:12:38.536Z,96.40
2018-07-26T21:15:08.891Z,96.75
2018-07-26T21:17:37.868Z,97.23
2018-07-26T21:20:06.966Z,98.35
2018-07-26T21:22:36.101Z,98.23
2018-07-26T21:25:05.169Z,98.49
2018-07-26T21:27:34.239Z,98.09
2018-07-26T21:30:03.213Z,97.46
2018-07-26T21:32:32.312Z,98.19
2018-07-26T21:35:01.285Z,97.49
2018-07-26T21:37:30.320Z,98.01
2018-07-26T21:39:59.332Z,98.05
2018-07-26T21:42:28.421Z,98.62
2018-07-26T21:44:57.461Z,98.41
2018-07-26T21:47:26.430Z,98.10
2018-07-26T21:49:55.525Z,98.87
2018-07-26T21:52:24.533Z,99.39
2018-07-26T21:54:53.511Z,99.25
2018-07-26T21:57:22.680Z,98.98
2018-07-26T21:59:51.648Z,99.87
2018-07-26T22:02:20.687Z,99.26
2018-07-26T22:04:49.796Z,99.08
2018-07-26T22:07:18.817Z,99.12
2018-07-26T22:09:47.872Z,99.85
2018-07-26T22:12:16.862Z,99.84
2018-07-26T22:14:45.824Z,100.00
2018-07-26T22:17:14.862Z,100.00
2018-07-26T22:19:43.836Z,100.00
2018-07-26T22:22:12.874Z,100.00
2018-07-26T22:24:41.915Z,100.00
2018-07-26T22:27:10.955Z,100.00
2018-07-26T22:29:39.920Z,100.00
2018-07-26T22:32:08.952Z,100.00
2018-07-26T22:34:37.932Z,100.00
2018-07-26T22:37:07.041Z,100.00
2018-07-26T22:39:36.141Z,100.00
2018-07-26T22:42:05.120Z,100.00
2018-07-26T22:44:34.128Z,100.00
2018-07-26T22:47:03.160Z,100.00
2018-07-26T22:49:32.193Z,100.00
2018-07-26T22:52:01.161Z,100.00
2018-07-26T22:54:30.238Z,100.00
2018-07-26T22:56:59.381Z,100.00
2018-07-26T22:59:28.412Z,100.00
2018-07-26T23:01:57.432Z,100.00
2018-07-26T23:04:26.612Z,100.00
2018-07-26T23:06:55.582Z,100.00
2018-07-26T23:09:24.559Z,100.00
2018-07-26T23:11:53.568Z,100.00
2018-07-26T23:14:22.664Z,100.00
2018-07-26T23:16:51.729Z,100.00
2018-07-26T23:19:20.718Z,100.00
2018-07-26T23:21:49.808Z,100.00
2018-07-26T23:24:18.845Z,100.00
2018-07-26T23:26:47.811Z,100.00
2018-07-26T23:29:16.780Z,100.00
2018-07-26T23:31:45.776Z,100.00
2018-07-26T23:34:14.756Z,100.00
2018-07-26T23:36:43.837Z,100.00
2018-07-26T23:39:13.659Z,100.00
2018-07-26T23:41:42.680Z,100.00
2018-07-26T23:44:11.660Z,100.00
2018-07-26T23:46:40.607Z,100.00
2018-07-26T23:49:09.581Z,100.00
2018-07-26T23:51:38.600Z,100.00
2018-07-26T23:54:07.623Z,100.00
2018-07-26T23:56:36.589Z,100.00
2018-07-26T23:59:05.677Z,100.00
